Time;durP1;ratioP1;P1;durP2;ratioP2;P2;SDS_P1;SDS_P2;PMS_P1;PMS_P2;Temp;Humidity;BMP_temperature;BMP_pressure;BME280_temperature;BME280_humidity;BME280_pressure;Samples;Min_cycle;Max_cycle;Signal;HPM_P1;HPM_P2
2022/12/01 00:02:05;;;;;;;56.78;32.95;;;6.60;99.90;;;;;;5072534;28;20512;-72
2022/12/01 00:04:31;;;;;;;59.53;33.85;;;6.50;99.90;;;;;;5070715;28;20031;-72
2022/12/01 00:06:57;;;;;;;57.40;33.85;;;6.50;99.90;;;;;;5072123;28;20054;-72
2022/12/01 00:12:07;;;;;;;59.75;34.75;;;6.70;99.90;;;;;;5072215;28;20472;-72
2022/12/01 00:14:33;;;;;;;57.60;33.45;;;6.70;99.90;;;;;;5072405;28;20036;-72
2022/12/01 00:16:58;;;;;;;56.60;33.40;;;6.70;99.90;;;;;;5075752;28;20024;-72
2022/12/01 00:19:25;;;;;;;61.55;34.20;;;6.70;99.90;;;;;;5076224;28;20029;-72
2022/12/01 00:21:51;;;;;;;56.50;34.75;;;6.70;99.90;;;;;;5075685;28;20113;-72
2022/12/01 00:24:17;;;;;;;58.30;33.63;;;6.80;99.90;;;;;;5075958;28;20098;-72
2022/12/01 00:26:42;;;;;;;61.38;33.40;;;6.80;99.90;;;;;;5076025;28;20028;-72
2022/12/01 00:29:08;;;;;;;60.22;34.92;;;6.70;99.90;;;;;;5057222;28;20035;-72
2022/12/01 00:31:34;;;;;;;61.03;36.08;;;6.70;99.90;;;;;;5067559;28;20032;-72
2022/12/01 00:34:00;;;;;;;59.15;35.28;;;6.60;99.90;;;;;;5075716;28;20021;-72
2022/12/01 00:36:26;;;;;;;63.10;35.03;;;6.50;99.90;;;;;;5075634;28;20119;-72
2022/12/01 00:38:54;;;;;;;62.95;35.70;;;6.40;99.90;;;;;;5075689;28;20058;-72
2022/12/01 00:41:20;;;;;;;59.97;35.97;;;6.40;99.90;;;;;;5074307;28;20519;-72
2022/12/01 00:43:46;;;;;;;63.28;36.08;;;6.40;99.90;;;;;;5073990;28;20411;-72
2022/12/01 00:46:12;;;;;;;65.35;38.80;;;6.30;99.90;;;;;;5075446;28;20070;-72
2022/12/01 00:48:39;;;;;;;67.90;39.45;;;6.40;99.90;;;;;;5075579;28;20024;-72
2022/12/01 00:51:06;;;;;;;70.07;40.17;;;6.50;99.90;;;;;;5074165;28;20465;-72
2022/12/01 00:53:31;;;;;;;69.03;38.13;;;6.40;99.90;;;;;;5075458;28;20050;-72
2022/12/01 00:55:57;;;;;;;78.13;41.10;;;6.20;99.90;;;;;;5057300;28;20555;-72
2022/12/01 00:58:24;;;;;;;73.70;41.55;;;6.20;99.90;;;;;;5075402;28;20032;-72
2022/12/01 01:00:57;;;;;;;65.93;38.08;;;6.20;99.90;;;;;;5073731;28;20029;-72
2022/12/01 01:03:24;;;;;;;67.68;39.10;;;6.30;99.90;;;;;;5075042;28;20060;-72
2022/12/01 01:05:49;;;;;;;68.60;36.60;;;6.20;99.90;;;;;;5074917;28;20138;-72
2022/12/01 01:08:15;;;;;;;62.25;38.00;;;6.30;99.90;;;;;;5074923;28;20052;-72
2022/12/01 01:10:43;;;;;;;65.07;38.40;;;6.40;99.90;;;;;;5073835;28;20100;-72
2022/12/01 01:13:09;;;;;;;72.22;39.70;;;6.20;99.90;;;;;;5075036;28;20397;-72
2022/12/01 01:15:35;;;;;;;74.13;41.88;;;6.40;99.90;;;;;;5074590;28;20024;-72
2022/12/01 01:18:01;;;;;;;66.68;38.30;;;6.40;99.90;;;;;;5074989;28;20040;-72
2022/12/01 01:20:27;;;;;;;62.58;37.38;;;6.40;99.90;;;;;;5074680;28;20107;-72
2022/12/01 01:22:53;;;;;;;60.60;36.03;;;6.40;99.90;;;;;;5075157;28;20037;-73
2022/12/01 01:25:19;;;;;;;63.88;37.80;;;6.50;99.90;;;;;;5074716;28;20350;-73
2022/12/01 01:27:44;;;;;;;54.97;35.90;;;6.50;99.90;;;;;;5074688;28;20090;-72
2022/12/01 01:30:11;;;;;;;58.90;36.05;;;6.40;99.90;;;;;;5073112;28;20031;-72
2022/12/01 01:32:37;;;;;;;60.90;37.30;;;6.50;99.90;;;;;;5074651;28;20056;-72
2022/12/01 01:35:05;;;;;;;61.45;35.17;;;6.60;99.90;;;;;;5074769;28;20111;-72
2022/12/01 01:37:31;;;;;;;61.20;36.13;;;6.40;99.90;;;;;;5056490;28;20051;-72
2022/12/01 01:39:56;;;;;;;61.38;34.88;;;6.40;99.90;;;;;;5074630;28;20477;-72
2022/12/01 01:42:22;;;;;;;57.85;34.22;;;6.50;99.90;;;;;;5074245;28;20032;-72
2022/12/01 01:44:51;;;;;;;52.03;33.10;;;6.40;99.90;;;;;;5072947;28;20032;-72
2022/12/01 01:47:33;;;;;;;58.30;35.42;;;6.50;99.90;;;;;;5073129;28;20032;-72
2022/12/01 01:50:07;;;;;;;57.13;34.90;;;6.50;99.90;;;;;;5074612;28;20028;-72
2022/12/01 01:52:37;;;;;;;51.08;32.05;;;6.70;99.90;;;;;;5074132;28;20403;-72
2022/12/01 01:55:04;;;;;;;54.33;32.15;;;6.70;99.90;;;;;;5074248;28;20027;-72
2022/12/01 01:57:32;;;;;;;54.33;32.15;;;6.80;99.90;;;;;;5074213;28;20115;-72
2022/12/01 02:00:13;;;;;;;59.92;32.58;;;6.90;99.90;;;;;;5073884;28;20017;-72
2022/12/01 02:02:44;;;;;;;52.53;32.50;;;7.00;99.90;;;;;;5074067;28;20427;-72
2022/12/01 02:05:18;;;;;;;49.70;32.30;;;6.90;99.90;;;;;;5073671;28;20082;-73
2022/12/01 02:07:45;;;;;;;55.83;32.83;;;6.90;99.90;;;;;;5072745;28;20068;-72
2022/12/01 02:10:13;;;;;;;54.80;32.38;;;6.90;99.90;;;;;;5073899;28;20095;-72
2022/12/01 02:12:54;;;;;;;48.33;28.90;;;6.80;99.90;;;;;;5073849;28;20499;-72
2022/12/01 02:15:45;;;;;;;44.90;28.67;;;6.80;99.90;;;;;;5073988;28;20058;-72
2022/12/01 02:18:11;;;;;;;43.30;26.77;;;6.80;99.90;;;;;;5073724;28;20039;-72
2022/12/01 02:21:10;;;;;;;46.88;25.85;;;6.70;99.90;;;;;;5073570;28;20016;-72
2022/12/01 02:24:00;;;;;;;46.80;28.02;;;6.50;99.90;;;;;;5073481;28;20045;-72
2022/12/01 02:26:45;;;;;;;46.38;26.75;;;6.30;99.90;;;;;;5072645;28;20016;-72
2022/12/01 02:29:16;;;;;;;46.60;26.42;;;6.20;99.90;;;;;;5073255;28;20346;-72
2022/12/01 02:31:55;;;;;;;38.15;24.08;;;6.20;99.90;;;;;;5073457;28;20040;-72
2022/12/01 02:34:50;;;;;;;42.55;25.52;;;6.10;99.90;;;;;;5060634;28;20073;-72
2022/12/01 02:37:35;;;;;;;44.92;26.65;;;6.00;99.90;;;;;;5072860;28;20037;-72
2022/12/01 02:40:17;;;;;;;46.22;26.00;;;6.10;99.90;;;;;;5072322;28;20032;-72
2022/12/01 02:42:58;;;;;;;47.00;26.10;;;6.30;99.90;;;;;;5072671;28;20043;-72
2022/12/01 02:45:39;;;;;;;46.30;24.65;;;6.20;99.90;;;;;;5073415;28;20025;-72
2022/12/01 02:48:33;;;;;;;41.47;24.23;;;6.10;99.90;;;;;;5040054;28;20431;-72
2022/12/01 02:51:06;;;;;;;37.63;22.27;;;6.10;99.90;;;;;;5071187;28;20017;-72
2022/12/01 02:53:33;;;;;;;40.65;22.58;;;6.10;99.90;;;;;;5073069;28;20465;-72
2022/12/01 02:55:58;;;;;;;43.80;22.55;;;6.20;99.90;;;;;;5073154;28;20106;-72
2022/12/01 02:58:24;;;;;;;42.33;24.45;;;6.20;99.90;;;;;;5072621;28;20052;-71
2022/12/01 03:01:01;;;;;;;43.55;24.92;;;6.20;99.90;;;;;;5073171;28;20384;-71
2022/12/01 03:03:39;;;;;;;45.97;24.50;;;6.20;99.90;;;;;;5072969;28;20044;-72
2022/12/01 03:06:19;;;;;;;43.88;23.65;;;6.20;99.90;;;;;;5072778;28;20048;-72
2022/12/01 03:09:03;;;;;;;44.33;24.55;;;6.30;99.90;;;;;;5071550;28;20032;-72
2022/12/01 03:11:42;;;;;;;47.58;24.10;;;6.40;99.90;;;;;;5072477;28;20039;-72
2022/12/01 03:14:34;;;;;;;44.55;23.27;;;6.30;99.90;;;;;;5072957;28;20440;-72
2022/12/01 03:17:06;;;;;;;39.47;22.10;;;6.30;99.90;;;;;;5037261;28;20107;-72
2022/12/01 03:19:39;;;;;;;46.50;24.63;;;6.30;99.90;;;;;;5072578;28;20036;-72
2022/12/01 03:22:21;;;;;;;50.45;24.98;;;6.40;99.90;;;;;;5071252;28;20170;-72
2022/12/01 03:24:50;;;;;;;42.55;23.80;;;6.40;99.90;;;;;;5072752;28;20374;-72
2022/12/01 03:27:19;;;;;;;45.97;25.38;;;6.60;99.90;;;;;;5071268;28;20054;-72
2022/12/01 03:29:50;;;;;;;49.88;23.50;;;6.60;99.90;;;;;;5070991;28;20021;-72
2022/12/01 03:32:42;;;;;;;40.67;22.93;;;6.60;99.90;;;;;;5072776;28;20033;-72
2022/12/01 03:35:34;;;;;;;;;;;6.50;99.90;;;;;;5071169;28;20339;-72
2022/12/01 03:38:42;;;;;;;43.33;22.52;;;6.50;99.90;;;;;;5070449;28;19916;-72
2022/12/01 03:41:14;;;;;;;42.30;22.75;;;6.50;99.90;;;;;;5009087;28;20406;-72
2022/12/01 03:43:46;;;;;;;41.00;23.58;;;6.50;99.90;;;;;;5010602;28;20418;-72
2022/12/01 03:46:31;;;;;;;47.78;24.30;;;6.40;99.90;;;;;;5039012;28;20498;-72
2022/12/01 03:48:57;;;;;;;43.08;23.40;;;6.40;99.90;;;;;;5072565;28;20105;-72
2022/12/01 03:51:31;;;;;;;45.72;24.20;;;6.40;99.90;;;;;;5075841;28;20024;-72
2022/12/01 03:54:23;;;;;;;41.08;22.58;;;6.30;99.90;;;;;;5075437;28;20044;-72
2022/12/01 03:56:54;;;;;;;42.70;24.10;;;6.40;99.90;;;;;;5052989;28;20384;-72
2022/12/01 03:59:23;;;;;;;44.20;25.20;;;6.40;99.90;;;;;;5076750;28;20043;-73
2022/12/01 04:01:49;;;;;;;44.28;24.20;;;6.50;99.90;;;;;;5076399;28;20492;-72
2022/12/01 04:04:15;;;;;;;47.60;25.35;;;6.50;99.90;;;;;;5076478;28;20048;-72
2022/12/01 04:06:44;;;;;;;47.80;26.50;;;6.50;99.90;;;;;;5075761;28;20009;-72
2022/12/01 04:09:10;;;;;;;49.67;27.33;;;6.60;99.90;;;;;;5075543;28;20055;-72
2022/12/01 04:14:21;;;;;;;40.58;25.48;;;6.50;99.90;;;;;;5076122;28;20040;-72
2022/12/01 04:16:47;;;;;;;48.03;25.38;;;6.50;99.90;;;;;;5076127;28;20021;-72
2022/12/01 04:19:13;;;;;;;41.67;25.75;;;6.40;99.90;;;;;;5076032;28;20384;-72
2022/12/01 04:21:39;;;;;;;45.00;25.70;;;6.50;99.90;;;;;;5075947;28;20025;-73
2022/12/01 04:24:05;;;;;;;49.70;27.42;;;6.40;99.90;;;;;;5074300;28;20032;-73
2022/12/01 04:26:33;;;;;;;51.45;26.65;;;6.50;99.90;;;;;;5076005;28;20039;-72
2022/12/01 04:29:05;;;;;;;44.30;24.48;;;6.50;99.90;;;;;;5075803;28;20040;-73
2022/12/01 04:31:31;;;;;;;41.53;23.45;;;6.50;99.90;;;;;;5075942;28;20024;-73
2022/12/01 04:33:57;;;;;;;48.10;27.10;;;6.40;99.90;;;;;;5074567;28;20086;-73
2022/12/01 04:36:24;;;;;;;50.88;29.27;;;6.30;99.90;;;;;;5074223;28;20123;-72
2022/12/01 04:38:50;;;;;;;51.28;27.80;;;6.50;99.90;;;;;;5075210;28;20028;-73
2022/12/01 04:41:16;;;;;;;45.90;27.30;;;6.40;99.90;;;;;;5075602;28;20024;-72
2022/12/01 04:43:42;;;;;;;45.92;26.55;;;6.50;99.90;;;;;;5075527;28;20438;-72
2022/12/01 04:46:08;;;;;;;49.47;27.20;;;6.50;99.90;;;;;;5075394;28;20033;-72
2022/12/01 04:48:35;;;;;;;46.35;27.02;;;6.40;99.90;;;;;;5074311;28;20183;-72
2022/12/01 04:51:02;;;;;;;46.80;27.52;;;6.50;99.90;;;;;;5075246;28;20491;-72
2022/12/01 04:53:27;;;;;;;48.55;27.85;;;6.60;99.90;;;;;;5075266;28;20028;-72
2022/12/01 04:55:53;;;;;;;49.30;28.58;;;6.50;99.90;;;;;;5073989;28;20409;-72
2022/12/01 04:58:19;;;;;;;48.72;26.60;;;6.50;99.90;;;;;;5075467;28;20101;-72
2022/12/01 05:00:45;;;;;;;46.33;27.67;;;6.40;99.90;;;;;;5074539;28;20078;-72
2022/12/01 05:03:10;;;;;;;48.75;27.95;;;6.50;99.90;;;;;;5075369;28;20036;-72
2022/12/01 05:05:36;;;;;;;48.00;27.45;;;6.40;99.90;;;;;;5075055;28;20025;-72
2022/12/01 05:08:02;;;;;;;51.35;28.75;;;6.50;99.90;;;;;;5074736;28;20025;-72
2022/12/01 05:10:28;;;;;;;53.72;28.67;;;6.40;99.90;;;;;;5083314;28;20041;-72
2022/12/01 05:12:54;;;;;;;47.80;28.17;;;6.50;99.90;;;;;;5075068;28;20025;-72
2022/12/01 05:15:20;;;;;;;48.47;29.15;;;6.40;99.90;;;;;;5075001;28;20036;-72
2022/12/01 05:17:45;;;;;;;50.17;26.80;;;6.30;99.90;;;;;;5074891;28;20036;-72
2022/12/01 05:23:07;;;;;;;55.58;29.23;;;6.20;99.90;;;;;;5074568;28;20029;-72
2022/12/01 05:25:33;;;;;;;49.65;29.70;;;6.50;99.90;;;;;;5074854;28;20508;-72
2022/12/01 05:27:59;;;;;;;47.72;27.23;;;6.40;99.90;;;;;;5074511;28;20119;-72
2022/12/01 05:30:24;;;;;;;57.05;29.38;;;6.40;99.90;;;;;;5074747;28;20021;-72
2022/12/01 05:32:50;;;;;;;55.97;29.15;;;6.30;99.90;;;;;;5074883;28;20035;-72
2022/12/01 05:35:16;;;;;;;52.28;28.65;;;6.50;99.90;;;;;;5073274;28;20009;-72
2022/12/01 05:37:42;;;;;;;57.63;29.80;;;6.60;99.90;;;;;;5072820;28;20488;-72
2022/12/01 05:40:08;;;;;;;59.28;31.83;;;6.60;99.90;;;;;;5073306;28;20037;-72
2022/12/01 05:42:34;;;;;;;65.97;33.60;;;6.70;99.90;;;;;;5074521;28;20017;-72
2022/12/01 05:44:59;;;;;;;68.63;33.63;;;6.70;99.90;;;;;;5074619;28;20039;-72
2022/12/01 05:47:25;;;;;;;61.75;32.78;;;6.70;99.90;;;;;;5074316;28;20078;-72
2022/12/01 05:49:51;;;;;;;67.72;34.05;;;6.80;99.90;;;;;;5073313;28;20032;-72
2022/12/01 05:52:16;;;;;;;64.88;32.67;;;6.90;99.90;;;;;;5073846;28;20020;-72
2022/12/01 05:54:42;;;;;;;58.20;31.98;;;7.00;99.90;;;;;;5074464;28;20059;-72
2022/12/01 05:57:08;;;;;;;61.53;32.97;;;7.10;99.90;;;;;;5074190;28;20060;-73
2022/12/01 05:59:34;;;;;;;72.03;36.00;;;7.10;99.90;;;;;;5074073;28;20029;-72
2022/12/01 06:02:00;;;;;;;61.58;34.22;;;7.20;99.90;;;;;;5073930;28;20029;-73
2022/12/01 06:04:25;;;;;;;60.17;33.88;;;7.10;99.90;;;;;;5073915;28;20025;-73
2022/12/01 06:06:51;;;;;;;59.63;33.20;;;7.10;99.90;;;;;;5073626;28;20036;-70
2022/12/01 06:09:17;;;;;;;58.92;32.33;;;7.00;99.90;;;;;;5072445;28;20473;-73
2022/12/01 06:11:42;;;;;;;62.75;34.22;;;6.90;99.90;;;;;;5073806;28;20024;-71
2022/12/01 06:14:08;;;;;;;66.18;35.45;;;7.10;99.90;;;;;;5073184;28;20033;-71
2022/12/01 06:16:34;;;;;;;65.10;34.85;;;7.10;99.90;;;;;;5073612;28;20989;-72
2022/12/01 06:19:00;;;;;;;64.72;33.97;;;7.10;99.90;;;;;;5072619;28;20112;-72
2022/12/01 06:21:26;;;;;;;63.78;34.35;;;7.20;99.90;;;;;;5073530;28;20056;-72
2022/12/01 06:23:51;;;;;;;63.03;34.50;;;7.10;99.90;;;;;;5073559;28;20024;-72
2022/12/01 06:26:17;;;;;;;72.95;36.92;;;7.10;99.90;;;;;;5073457;28;20032;-72
2022/12/01 06:28:43;;;;;;;62.10;35.28;;;7.00;99.90;;;;;;5073626;28;20024;-72
2022/12/01 06:31:09;;;;;;;75.38;35.92;;;7.00;99.90;;;;;;5073585;28;20017;-72
2022/12/01 06:33:34;;;;;;;65.55;34.75;;;6.90;99.90;;;;;;5072128;28;20032;-72
2022/12/01 06:36:05;;;;;;;66.80;33.97;;;6.80;99.90;;;;;;5073381;28;20139;-73
2022/12/01 06:38:33;;;;;;;67.68;35.90;;;6.90;99.90;;;;;;5073374;28;20032;-72
2022/12/01 06:40:59;;;;;;;69.28;36.42;;;6.80;99.90;;;;;;5072038;28;20021;-72
2022/12/01 06:43:25;;;;;;;72.88;37.88;;;6.70;99.90;;;;;;5072052;28;20125;-72
2022/12/01 06:45:51;;;;;;;72.93;38.33;;;6.70;99.90;;;;;;5073166;28;20044;-72
2022/12/01 06:48:18;;;;;;;75.57;36.35;;;6.70;99.90;;;;;;5073104;28;20032;-73
2022/12/01 06:50:43;;;;;;;68.63;37.15;;;6.80;99.90;;;;;;5072922;28;20110;-73
2022/12/01 06:53:10;;;;;;;70.68;38.90;;;6.90;99.90;;;;;;5073150;28;20052;-73
2022/12/01 06:55:37;;;;;;;70.18;37.13;;;6.90;99.90;;;;;;5073202;28;20086;-72
2022/12/01 06:58:03;;;;;;;71.57;37.70;;;7.00;99.90;;;;;;5072860;28;20027;-72
2022/12/01 07:00:30;;;;;;;64.90;34.47;;;7.10;99.90;;;;;;5073083;28;20020;-73
2022/12/01 07:02:55;;;;;;;74.70;37.15;;;6.80;99.90;;;;;;5072645;28;20037;-72
2022/12/01 07:05:21;;;;;;;68.97;36.45;;;7.00;99.90;;;;;;5072969;28;20025;-71
2022/12/01 07:07:47;;;;;;;71.68;37.25;;;6.90;99.90;;;;;;5072634;28;20393;-74
2022/12/01 07:10:13;;;;;;;75.63;42.67;;;7.00;99.90;;;;;;5072849;28;20052;-73
2022/12/01 07:12:39;;;;;;;69.55;37.38;;;6.90;99.90;;;;;;5072774;28;20047;-73
2022/12/01 07:15:07;;;;;;;72.07;38.90;;;7.00;99.90;;;;;;5072890;28;20530;-73
2022/12/01 07:17:33;;;;;;;91.63;50.13;;;7.10;99.90;;;;;;5072939;28;20024;-73
2022/12/01 07:19:59;;;;;;;78.18;43.40;;;7.00;99.90;;;;;;5072744;28;20094;-72
2022/12/01 07:22:24;;;;;;;80.57;44.85;;;7.10;99.90;;;;;;5054842;28;20473;-72
2022/12/01 07:24:50;;;;;;;84.53;41.42;;;7.10;99.90;;;;;;5072375;28;20037;-73
2022/12/01 07:27:16;;;;;;;82.65;43.03;;;7.20;99.90;;;;;;5072531;28;20029;-72
2022/12/01 07:29:42;;;;;;;73.10;38.53;;;7.10;99.90;;;;;;5072532;28;20124;-73
2022/12/01 07:32:07;;;;;;;69.10;37.10;;;7.10;99.90;;;;;;5072427;28;20039;-72
2022/12/01 07:34:33;;;;;;;70.78;38.67;;;7.00;99.90;;;;;;5072752;28;20036;-72
2022/12/01 07:36:59;;;;;;;66.03;36.10;;;7.20;99.90;;;;;;5072392;28;20036;-73
2022/12/01 07:39:25;;;;;;;67.10;36.25;;;7.20;99.90;;;;;;5072526;28;20028;-73
2022/12/01 07:41:50;;;;;;;71.15;36.53;;;7.30;99.90;;;;;;5072705;28;20025;-73
2022/12/01 07:44:16;;;;;;;70.07;36.47;;;7.50;99.90;;;;;;5072017;28;20126;-73
2022/12/01 07:46:42;;;;;;;65.38;35.60;;;7.40;99.90;;;;;;5071536;28;20039;-73
2022/12/01 07:49:10;;;;;;;64.35;35.63;;;7.40;99.90;;;;;;5056269;28;20043;-73
2022/12/01 07:51:36;;;;;;;66.55;33.95;;;7.30;99.90;;;;;;5070548;28;20024;-72
2022/12/01 07:54:04;;;;;;;66.72;35.72;;;7.40;99.90;;;;;;5070386;28;20531;-73
2022/12/01 07:56:30;;;;;;;61.63;33.03;;;7.50;99.90;;;;;;5084342;28;20020;-73
2022/12/01 07:58:55;;;;;;;64.78;34.25;;;7.30;99.90;;;;;;5072163;28;20492;-72
2022/12/01 08:01:23;;;;;;;69.07;35.90;;;7.30;99.90;;;;;;5069332;28;20025;-73
2022/12/01 08:03:51;;;;;;;68.40;34.13;;;7.20;99.90;;;;;;5071728;28;20036;-72
2022/12/01 08:06:18;;;;;;;66.57;34.28;;;7.30;99.90;;;;;;5073522;28;20078;-72
2022/12/01 08:08:43;;;;;;;70.55;35.50;;;7.30;99.90;;;;;;5071372;28;20054;-72
2022/12/01 08:11:18;;;;;;;68.00;36.00;;;7.40;99.90;;;;;;5071396;28;20032;-73
2022/12/01 08:13:45;;;;;;;69.00;36.15;;;7.30;99.90;;;;;;5074958;28;20032;-73
2022/12/01 08:16:13;;;;;;;64.15;34.42;;;7.30;99.90;;;;;;5070772;28;20021;-73
2022/12/01 08:18:41;;;;;;;67.90;36.25;;;7.50;99.90;;;;;;5063921;28;20141;-73
2022/12/01 08:21:10;;;;;;;69.18;36.30;;;7.50;99.90;;;;;;5050423;28;20175;-73
2022/12/01 08:23:35;;;;;;;65.68;34.65;;;7.70;99.90;;;;;;5063921;28;20123;-73
2022/12/01 08:26:08;;;;;;;64.00;31.65;;;7.70;99.90;;;;;;5062227;28;20433;-73
2022/12/01 08:28:37;;;;;;;56.92;29.77;;;7.60;99.90;;;;;;5070034;28;20016;-74
2022/12/01 08:31:34;;;;;;;55.40;31.13;;;7.60;99.90;;;;;;5073891;28;20381;-73
2022/12/01 08:34:00;;;;;;;53.60;28.98;;;7.40;99.90;;;;;;5058753;28;20425;-73
2022/12/01 08:36:25;;;;;;;58.05;29.85;;;7.50;99.90;;;;;;5071316;28;20074;-73
2022/12/01 08:38:53;;;;;;;58.40;30.27;;;7.40;99.90;;;;;;5074884;28;20020;-72
2022/12/01 08:41:20;;;;;;;62.08;29.88;;;7.60;99.90;;;;;;5074732;28;20525;-73
2022/12/01 08:43:45;;;;;;;58.95;30.55;;;7.70;99.90;;;;;;5074647;28;20507;-73
2022/12/01 08:46:12;;;;;;;52.28;30.23;;;7.90;99.90;;;;;;5073159;28;20028;-73
2022/12/01 08:48:39;;;;;;;57.15;31.17;;;7.80;99.90;;;;;;5071976;28;20044;-73
2022/12/01 08:51:07;;;;;;;60.90;32.28;;;7.70;99.90;;;;;;5072455;28;20012;-73
2022/12/01 08:53:35;;;;;;;62.38;31.88;;;7.80;99.90;;;;;;5073380;28;20032;-74
2022/12/01 08:56:07;;;;;;;59.80;31.95;;;7.80;99.90;;;;;;5074324;28;20024;-74
2022/12/01 08:58:33;;;;;;;62.72;32.13;;;8.00;99.90;;;;;;5064854;28;20112;-73
2022/12/01 09:01:10;;;;;;;61.10;31.90;;;8.00;99.90;;;;;;5073182;28;20495;-74
2022/12/01 09:03:37;;;;;;;66.63;33.75;;;8.10;99.90;;;;;;5065065;28;20029;-74
2022/12/01 09:06:06;;;;;;;70.63;34.92;;;8.10;99.90;;;;;;5079079;28;20043;-73
2022/12/01 09:08:32;;;;;;;67.60;33.45;;;7.90;99.90;;;;;;5070903;28;20028;-73
2022/12/01 09:10:59;;;;;;;64.50;32.42;;;7.80;99.90;;;;;;5069672;28;20071;-73
2022/12/01 09:13:26;;;;;;;67.95;33.70;;;7.70;99.90;;;;;;5073670;28;20025;-73
2022/12/01 09:16:06;;;;;;;65.93;37.22;;;7.80;99.90;;;;;;5074100;28;20146;-73
2022/12/01 09:18:32;;;;;;;71.53;39.08;;;7.90;99.90;;;;;;5074276;28;20134;-73
2022/12/01 09:20:58;;;;;;;67.82;35.03;;;7.90;99.90;;;;;;5074212;28;20488;-73
2022/12/01 09:23:25;;;;;;;73.15;39.28;;;7.70;99.90;;;;;;5073820;28;20025;-73
2022/12/01 09:25:52;;;;;;;65.13;32.78;;;7.70;99.90;;;;;;5073853;28;20020;-73
2022/12/01 09:28:18;;;;;;;65.88;35.22;;;7.80;99.90;;;;;;5073629;28;20035;-73
2022/12/01 09:30:45;;;;;;;58.28;33.90;;;7.90;99.90;;;;;;5073615;28;20025;-73
2022/12/01 09:33:12;;;;;;;67.90;35.40;;;7.80;99.90;;;;;;5069669;28;20032;-73
2022/12/01 09:35:38;;;;;;;66.78;35.13;;;8.00;99.90;;;;;;5073758;28;20262;-73
2022/12/01 09:38:04;;;;;;;66.53;34.10;;;8.00;99.90;;;;;;5073695;28;20021;-73
2022/12/01 09:40:39;;;;;;;61.28;34.00;;;8.20;99.90;;;;;;5073337;28;20025;-74
2022/12/01 09:43:27;;;;;;;58.42;29.63;;;8.40;99.90;;;;;;5072836;28;20472;-74
2022/12/01 09:46:04;;;;;;;53.78;29.05;;;8.40;99.90;;;;;;5073682;28;20020;-73
2022/12/01 09:48:41;;;;;;;54.78;30.65;;;8.40;99.90;;;;;;5068916;28;20033;-74
2022/12/01 09:51:19;;;;;;;61.45;30.65;;;8.20;99.90;;;;;;5073726;28;20033;-73
2022/12/01 09:53:49;;;;;;;56.80;30.75;;;8.20;99.90;;;;;;5065087;28;20062;-74
2022/12/01 09:56:33;;;;;;;61.80;31.63;;;8.40;99.90;;;;;;5070370;28;20024;-74
2022/12/01 09:59:04;;;;;;;65.47;35.47;;;8.30;99.90;;;;;;5071458;28;20032;-74
2022/12/01 10:01:35;;;;;;;83.35;40.92;;;8.20;99.90;;;;;;5073172;28;20036;-73
2022/12/01 10:04:13;;;;;;;88.55;42.55;;;8.00;99.90;;;;;;5073480;28;20374;-73
2022/12/01 10:06:49;;;;;;;85.57;39.33;;;8.00;99.90;;;;;;5072900;28;20033;-73
2022/12/01 10:09:23;;;;;;;89.18;42.80;;;7.70;99.90;;;;;;5070577;28;20024;-73
2022/12/01 10:11:53;;;;;;;84.57;42.50;;;7.90;99.90;;;;;;5064453;28;20036;-73
2022/12/01 10:14:20;;;;;;;84.70;42.20;;;7.90;99.90;;;;;;5066267;28;20107;-73
2022/12/01 10:16:57;;;;;;;73.65;39.90;;;8.10;99.90;;;;;;5064845;28;20487;-73
2022/12/01 10:19:55;;;;;;;75.85;39.75;;;8.30;99.90;;;;;;5083385;28;20029;-73
2022/12/01 10:22:46;;;;;;;77.00;39.00;;;8.30;99.90;;;;;;5067752;28;20021;-73
2022/12/01 10:25:22;;;;;;;85.47;42.33;;;8.50;99.90;;;;;;5070976;28;20058;-73
2022/12/01 10:27:51;;;;;;;89.00;42.97;;;8.40;99.90;;;;;;5065558;28;20028;-72
2022/12/01 10:30:21;;;;;;;71.68;38.47;;;8.20;99.90;;;;;;5072755;28;20472;-73
2022/12/01 10:32:57;;;;;;;60.03;33.75;;;8.10;99.90;;;;;;5072446;28;20028;-72
2022/12/01 10:35:26;;;;;;;58.05;31.85;;;7.90;99.90;;;;;;5071343;28;20545;-73
2022/12/01 10:38:00;;;;;;;73.22;32.10;;;8.00;99.90;;;;;;5072395;28;20090;-73
2022/12/01 10:40:27;;;;;;;72.38;34.72;;;8.10;99.90;;;;;;5071963;28;20473;-72
2022/12/01 10:42:53;;;;;;;69.72;35.00;;;7.70;99.90;;;;;;5071149;28;20039;-72
2022/12/01 10:45:25;;;;;;;71.57;36.92;;;7.70;99.90;;;;;;5070315;28;20048;-72
2022/12/01 10:48:15;;;;;;;66.10;32.95;;;7.80;99.90;;;;;;5065502;28;20029;-73
2022/12/01 10:50:48;;;;;;;59.45;32.28;;;8.00;99.90;;;;;;5062629;28;20036;-72
2022/12/01 10:53:35;;;;;;;62.13;32.00;;;8.10;99.90;;;;;;5070247;28;20039;-72
2022/12/01 10:56:10;;;;;;;60.13;29.20;;;8.20;99.90;;;;;;5069431;28;20468;-72
2022/12/01 10:58:46;;;;;;;55.38;28.38;;;8.10;99.90;;;;;;5062489;28;20052;-72
2022/12/01 11:01:25;;;;;;;65.15;32.05;;;8.30;99.90;;;;;;5070968;28;20036;-71
2022/12/01 11:03:56;;;;;;;57.53;30.17;;;8.10;99.90;;;;;;5062617;28;20040;-72
2022/12/01 11:06:27;;;;;;;67.88;30.52;;;8.20;99.90;;;;;;5072161;28;20474;-72
2022/12/01 11:09:03;;;;;;;56.70;30.50;;;8.00;99.90;;;;;;5067028;28;20098;-73
2022/12/01 11:11:41;;;;;;;54.00;29.73;;;8.00;99.90;;;;;;5070000;28;20028;-71
2022/12/01 11:14:28;;;;;;;52.70;28.58;;;8.20;99.90;;;;;;5071960;28;20074;-71
2022/12/01 11:16:54;;;;;;;54.45;29.40;;;8.10;99.90;;;;;;5069582;28;20033;-71
2022/12/01 11:19:33;;;;;;;56.25;29.40;;;8.30;99.90;;;;;;5070875;28;20100;-71
2022/12/01 11:22:24;;;;;;;55.58;29.00;;;8.00;99.90;;;;;;5069543;28;20029;-71
2022/12/01 11:25:00;;;;;;;55.90;28.17;;;8.50;99.90;;;;;;5071534;28;20126;-71
2022/12/01 11:27:49;;;;;;;49.40;27.25;;;8.50;99.90;;;;;;5068483;28;20028;-71
2022/12/01 11:30:26;;;;;;;57.10;28.48;;;8.50;99.90;;;;;;5071203;28;20052;-71
2022/12/01 11:32:56;;;;;;;54.33;29.45;;;8.70;99.90;;;;;;5071858;28;20032;-71
2022/12/01 11:35:24;;;;;;;58.83;30.60;;;9.00;99.90;;;;;;5071377;28;20183;-71
2022/12/01 11:37:57;;;;;;;62.22;31.52;;;8.90;99.90;;;;;;5071568;28;20046;-71
2022/12/01 11:40:30;;;;;;;60.10;32.42;;;9.10;99.90;;;;;;5070117;28;20020;-71
2022/12/01 11:43:00;;;;;;;62.80;33.00;;;9.20;99.90;;;;;;5060245;28;20034;-72
2022/12/01 11:45:32;;;;;;;52.38;27.50;;;9.30;99.90;;;;;;5068960;28;20049;-71
2022/12/01 11:47:58;;;;;;;;;;;9.30;99.90;;;;;;5071878;28;20433;-71
2022/12/01 11:50:27;;;;;;;52.28;26.05;;;9.60;99.90;;;;;;5062226;28;19999;-73
2022/12/01 11:52:53;;;;;;;43.85;25.70;;;9.50;99.90;;;;;;5068067;28;20029;-72
2022/12/01 11:55:22;;;;;;;42.15;25.00;;;9.50;99.90;;;;;;5069187;28;20035;-74
2022/12/01 11:57:55;;;;;;;50.63;25.98;;;9.30;99.90;;;;;;5071909;28;20115;-74
2022/12/01 12:00:24;;;;;;;47.67;26.88;;;9.10;99.90;;;;;;5054306;28;20809;-74
2022/12/01 12:02:59;;;;;;;54.05;29.65;;;9.10;99.90;;;;;;5072294;28;20119;-73
2022/12/01 12:05:34;;;;;;;57.70;28.55;;;9.00;99.90;;;;;;5072211;28;20079;-74
2022/12/01 12:08:18;;;;;;;57.55;30.58;;;8.90;99.90;;;;;;5072621;28;20032;-74
2022/12/01 12:11:16;;;;;;;55.38;27.85;;;9.00;99.90;;;;;;5076531;28;20024;-74
2022/12/01 12:14:09;;;;;;;72.90;41.67;;;9.00;99.90;;;;;;5077048;28;20031;-74
2022/12/01 12:17:08;;;;;;;62.65;35.92;;;9.20;99.90;;;;;;5074748;28;20020;-73
2022/12/01 12:19:43;;;;;;;42.45;25.65;;;9.30;99.90;;;;;;5065341;28;20090;-72
2022/12/01 12:22:46;;;;;;;50.38;27.98;;;9.20;99.90;;;;;;5075943;28;20032;-74
2022/12/01 12:25:31;;;;;;;46.72;25.38;;;9.00;99.90;;;;;;5075299;28;20032;-72
2022/12/01 12:28:16;;;;;;;43.03;24.63;;;9.00;99.90;;;;;;5075413;28;20028;-72
2022/12/01 12:30:57;;;;;;;45.08;25.02;;;8.90;99.90;;;;;;5066493;28;20489;-73
2022/12/01 12:33:44;;;;;;;44.67;25.35;;;8.70;99.90;;;;;;5075720;28;20040;-74
2022/12/01 12:36:20;;;;;;;47.25;26.30;;;9.20;99.90;;;;;;5075502;28;20033;-74
2022/12/01 12:38:46;;;;;;;47.53;24.58;;;10.80;99.90;;;;;;5082426;28;20384;-73
2022/12/01 12:41:36;;;;;;;41.53;23.13;;;12.10;99.90;;;;;;5094549;28;20020;-74
2022/12/01 12:44:13;;;;;;;36.13;21.58;;;13.40;99.90;;;;;;5095846;28;20043;-73
2022/12/01 12:47:08;;;;;;;33.40;20.83;;;13.80;99.90;;;;;;5081809;28;20169;-73
2022/12/01 12:49:43;;;;;;;32.97;19.85;;;14.20;99.90;;;;;;5094769;28;20048;-72
2022/12/01 12:52:16;;;;;;;35.30;21.08;;;15.20;99.90;;;;;;5095212;28;20023;-72
2022/12/01 12:54:51;;;;;;;34.55;20.25;;;15.10;99.90;;;;;;5095775;28;20068;-72
2022/12/01 12:57:36;;;;;;;33.90;19.20;;;15.70;99.90;;;;;;5095607;28;20031;-72
2022/12/01 13:00:11;;;;;;;31.42;17.67;;;15.60;99.90;;;;;;5095404;28;20024;-72
2022/12/01 13:02:45;;;;;;;26.55;16.25;;;16.20;99.50;;;;;;5095469;28;20460;-72
2022/12/01 13:05:35;;;;;;;26.85;15.88;;;15.80;99.70;;;;;;5095262;28;20115;-72
2022/12/01 13:08:16;;;;;;;25.00;14.95;;;16.90;99.50;;;;;;5095522;28;20034;-72